RCT weather

Nartron Field
Reed City, Michigan, United States

Public forecast

Using degrees Fahrenheit for public forecast. Weather courtesy of forecast.io.

METAR (pilot weather report)

Closest report is Roben Hood Airport, 10.7 nm (19.8 km) S. Retrieved 2019/06/16 08:37 UTC (0 seconds ago):

KRQB 160837Z AUTO 10006KT 10SM OVC025 14/08 A2983 RMK AO2 T01400081

TAF (pilot weather forecast)

Closest forecast is Manistee Co Blacker Airport, 38.6 nm (71.5 km) NW. Retrieved 2019/06/16 06:21 UTC (2 hours ago):

TAF KMBL 160520Z 1606/1706 08007KT P6SM BKN040 BKN070 FM161600 04006KT P6SM BKN060 FM161900 36006KT P6SM OVC060 FM170000 05006KT P6SM BKN090 FM170300 VRB03KT P6SM BKN090